createdAt,value
2023-03-08T00:01:58.653Z,94.47
2023-03-08T00:05:46.159Z,94.59
2023-03-08T00:09:33.809Z,94.51
2023-03-08T00:13:12.608Z,94.37
2023-03-08T00:16:43.084Z,94.55
2023-03-08T00:20:30.319Z,94.57
2023-03-08T00:24:19.916Z,94.60
2023-03-08T00:28:27.717Z,94.47
2023-03-08T00:32:06.711Z,94.32
2023-03-08T00:36:00.232Z,94.49
2023-03-08T00:39:50.449Z,94.21
2023-03-08T00:43:31.925Z,94.27
2023-03-08T00:47:20.043Z,94.49
2023-03-08T00:51:08.232Z,94.36
2023-03-08T00:54:46.756Z,94.55
2023-03-08T00:58:26.505Z,94.39
2023-03-08T01:02:14.070Z,94.43
2023-03-08T01:06:23.190Z,94.47
2023-03-08T01:09:50.810Z,94.47
2023-03-08T01:13:22.611Z,94.29
2023-03-08T01:17:01.025Z,94.18
2023-03-08T01:20:56.318Z,94.18
2023-03-08T01:24:47.187Z,94.24
2023-03-08T01:28:35.664Z,94.47
2023-03-08T01:32:23.097Z,94.21
2023-03-08T01:36:15.035Z,94.44
2023-03-08T01:40:02.880Z,94.45
2023-03-08T01:43:42.285Z,94.34
2023-03-08T01:47:30.991Z,94.16
2023-03-08T01:51:36.716Z,94.25
2023-03-08T01:55:17.398Z,94.06
2023-03-08T01:58:55.952Z,93.88
2023-03-08T02:02:49.288Z,93.90
2023-03-08T02:06:37.132Z,94.15
2023-03-08T02:10:25.232Z,93.95
2023-03-08T02:14:12.837Z,94.10
2023-03-08T02:18:00.355Z,94.06
2023-03-08T02:21:48.446Z,94.18
2023-03-08T02:25:28.925Z,94.64
2023-03-08T02:29:00.913Z,94.64
2023-03-08T02:32:39.783Z,94.73
2023-03-08T02:36:15.964Z,95.24
2023-03-08T02:39:57.564Z,95.41
2023-03-08T02:43:25.776Z,95.29
2023-03-08T02:47:04.240Z,95.35
2023-03-08T02:50:43.320Z,95.29
2023-03-08T02:54:19.778Z,95.34
2023-03-08T02:58:09.745Z,95.14
2023-03-08T03:01:58.154Z,94.75
2023-03-08T03:05:46.980Z,95.17
2023-03-08T03:09:31.510Z,95.25
2023-03-08T03:13:18.422Z,95.26
2023-03-08T03:17:06.036Z,95.37
2023-03-08T03:20:53.784Z,95.28
2023-03-08T03:24:41.794Z,95.49
2023-03-08T03:28:29.292Z,95.44
2023-03-08T03:32:16.897Z,95.33
2023-03-08T03:36:05.035Z,95.15
2023-03-08T03:39:52.747Z,95.55
2023-03-08T03:43:31.944Z,95.54
2023-03-08T03:47:12.614Z,95.86
2023-03-08T03:51:01.965Z,96.33
2023-03-08T03:54:43.977Z,96.50
2023-03-08T03:58:31.518Z,96.67
2023-03-08T04:02:13.144Z,96.65
2023-03-08T04:06:08.971Z,96.66
2023-03-08T04:09:48.791Z,96.72
2023-03-08T04:13:36.579Z,96.68
2023-03-08T04:17:24.399Z,96.52
2023-03-08T04:21:14.701Z,96.44
2023-03-08T04:24:55.064Z,96.13
2023-03-08T04:28:41.039Z,96.26
2023-03-08T04:32:12.200Z,95.94
2023-03-08T04:36:03.231Z,95.71
2023-03-08T04:39:33.228Z,95.50
2023-03-08T04:43:10.594Z,95.58
2023-03-08T04:46:58.948Z,95.38
2023-03-08T04:50:46.791Z,94.89
2023-03-08T04:54:33.248Z,94.97
2023-03-08T04:58:17.134Z,94.88
2023-03-08T05:02:04.876Z,94.77
2023-03-08T05:05:55.576Z,95.10
2023-03-08T05:09:34.015Z,94.94
2023-03-08T05:13:21.507Z,94.74
2023-03-08T05:16:55.649Z,94.66
2023-03-08T05:20:43.486Z,94.81
2023-03-08T05:24:15.237Z,94.77
2023-03-08T05:27:50.666Z,94.85
2023-03-08T05:31:23.605Z,94.91
2023-03-08T05:34:53.337Z,94.89
2023-03-08T05:38:32.356Z,94.86
2023-03-08T05:42:19.861Z,94.54
2023-03-08T05:46:08.882Z,94.58
2023-03-08T05:49:55.867Z,94.56
2023-03-08T05:53:33.861Z,94.41
2023-03-08T05:57:14.570Z,94.69
2023-03-08T06:00:55.485Z,94.46
2023-03-08T06:04:38.074Z,94.51
2023-03-08T06:08:17.469Z,94.30
2023-03-08T06:11:51.655Z,94.04
2023-03-08T06:15:30.717Z,94.05
2023-03-08T06:19:08.884Z,93.77
2023-03-08T06:22:40.500Z,93.70
2023-03-08T06:26:28.389Z,93.77
2023-03-08T06:30:07.476Z,93.50
2023-03-08T06:33:44.227Z,93.25
2023-03-08T06:37:27.914Z,93.14
2023-03-08T06:41:01.232Z,93.14
2023-03-08T06:44:49.396Z,92.95
2023-03-08T06:48:33.295Z,92.93
2023-03-08T06:52:21.125Z,92.66
2023-03-08T06:56:03.030Z,92.47
2023-03-08T06:59:51.020Z,92.23
2023-03-08T07:03:39.793Z,91.78
2023-03-08T07:07:25.030Z,91.28
2023-03-08T07:11:03.043Z,91.20
2023-03-08T07:14:54.146Z,90.73
2023-03-08T07:18:37.576Z,88.14
2023-03-08T07:22:16.405Z,87.51
2023-03-08T07:25:54.614Z,87.08
2023-03-08T07:29:42.560Z,86.73
2023-03-08T07:33:22.553Z,86.64
2023-03-08T07:37:01.952Z,86.56
2023-03-08T07:40:57.190Z,87.06
2023-03-08T07:44:38.570Z,87.51
2023-03-08T07:48:26.442Z,88.48
2023-03-08T07:52:14.321Z,87.63
2023-03-08T07:55:54.489Z,86.47
2023-03-08T07:59:35.086Z,84.88
2023-03-08T08:03:17.539Z,84.54
2023-03-08T08:06:46.299Z,84.25
2023-03-08T08:10:34.129Z,83.30
2023-03-08T08:14:21.948Z,82.91
2023-03-08T08:18:02.982Z,82.92
2023-03-08T08:21:33.683Z,81.99
2023-03-08T08:25:22.761Z,82.12
2023-03-08T08:28:59.462Z,80.61
2023-03-08T08:32:37.771Z,80.95
2023-03-08T08:36:27.548Z,80.29
2023-03-08T08:40:14.257Z,80.26
2023-03-08T08:44:03.216Z,78.57
2023-03-08T08:47:48.978Z,78.44
2023-03-08T08:51:26.900Z,78.54
2023-03-08T08:55:07.443Z,77.47
2023-03-08T08:58:56.090Z,78.06
2023-03-08T09:02:43.954Z,78.01
2023-03-08T09:06:15.519Z,77.29
2023-03-08T09:09:55.553Z,77.28
2023-03-08T09:13:26.747Z,76.06
2023-03-08T09:17:00.331Z,75.11
2023-03-08T09:20:31.128Z,75.75
2023-03-08T09:29:59.495Z,76.70
2023-03-08T09:34:49.918Z,77.15
2023-03-08T09:38:17.660Z,76.75
2023-03-08T09:41:54.283Z,76.51
2023-03-08T09:45:28.474Z,76.52
2023-03-08T09:49:01.157Z,76.21
2023-03-08T09:52:34.386Z,76.44
2023-03-08T09:56:08.148Z,76.66
2023-03-08T09:59:41.843Z,76.64
2023-03-08T10:03:40.179Z,76.04
2023-03-08T10:07:24.509Z,75.72
2023-03-08T10:11:00.699Z,75.66
2023-03-08T10:14:32.359Z,74.87
2023-03-08T10:18:04.391Z,74.81
2023-03-08T10:21:35.080Z,74.45
2023-03-08T10:25:06.756Z,75.05
2023-03-08T10:28:36.086Z,74.73
2023-03-08T10:32:03.705Z,75.29
2023-03-08T10:35:39.716Z,75.36
2023-03-08T10:39:12.380Z,74.33
2023-03-08T10:42:39.735Z,74.74
2023-03-08T10:46:12.839Z,73.76
2023-03-08T10:49:39.827Z,73.35
2023-03-08T10:53:17.808Z,73.36
2023-03-08T10:56:52.276Z,73.32
2023-03-08T11:00:35.315Z,71.66
2023-03-08T11:04:04.710Z,70.89
2023-03-08T11:07:34.525Z,69.52
2023-03-08T11:11:03.821Z,67.54
2023-03-08T11:14:32.447Z,67.94
2023-03-08T11:18:05.198Z,69.67
2023-03-08T11:21:41.528Z,70.25
2023-03-08T11:25:23.617Z,67.84
2023-03-08T11:29:06.202Z,67.96
2023-03-08T11:32:51.819Z,68.41
2023-03-08T11:36:28.353Z,65.57
2023-03-08T11:40:15.092Z,66.11
2023-03-08T11:43:58.639Z,66.84
2023-03-08T11:47:53.304Z,66.37
2023-03-08T11:51:28.334Z,66.27
2023-03-08T11:55:07.627Z,67.47
2023-03-08T11:58:40.306Z,67.17
2023-03-08T12:02:18.712Z,66.21
2023-03-08T12:05:51.049Z,66.11
2023-03-08T12:09:26.123Z,66.59
2023-03-08T12:12:59.060Z,66.90
2023-03-08T12:16:30.535Z,68.27
2023-03-08T12:19:58.087Z,68.18
2023-03-08T12:23:32.416Z,68.17
2023-03-08T12:27:06.921Z,67.07
2023-03-08T12:30:53.365Z,66.91
2023-03-08T12:34:31.177Z,67.42
2023-03-08T12:38:04.458Z,67.14
2023-03-08T12:41:33.661Z,67.64
2023-03-08T12:45:26.285Z,67.86
2023-03-08T12:48:55.396Z,67.84
2023-03-08T12:52:35.704Z,67.49
2023-03-08T12:56:07.223Z,67.32
2023-03-08T12:59:41.419Z,66.62
2023-03-08T13:03:23.906Z,65.13
2023-03-08T13:07:26.233Z,64.69
2023-03-08T13:11:05.372Z,64.45
2023-03-08T13:14:44.259Z,65.84
2023-03-08T13:18:19.742Z,63.97
2023-03-08T13:21:54.992Z,62.89
2023-03-08T13:25:53.279Z,63.87
2023-03-08T13:29:22.477Z,64.03
2023-03-08T13:32:51.454Z,63.77
2023-03-08T13:36:21.963Z,63.56
2023-03-08T13:39:55.118Z,62.93
2023-03-08T13:43:24.567Z,63.70
2023-03-08T13:46:55.194Z,63.87
2023-03-08T13:50:28.622Z,64.35
2023-03-08T13:53:56.501Z,63.92
2023-03-08T13:57:26.613Z,63.84
2023-03-08T14:01:03.926Z,64.02
2023-03-08T14:04:32.120Z,64.79
2023-03-08T14:08:04.856Z,64.91
2023-03-08T14:11:34.666Z,65.89
2023-03-08T14:15:01.715Z,65.50
2023-03-08T14:18:32.713Z,65.50
2023-03-08T14:22:02.415Z,65.43
2023-03-08T14:25:32.767Z,65.17
2023-03-08T14:29:18.278Z,65.75
2023-03-08T14:32:59.476Z,66.23
2023-03-08T14:36:27.184Z,66.57
2023-03-08T14:39:56.938Z,66.60
2023-03-08T14:43:24.242Z,66.31
2023-03-08T14:46:58.353Z,66.08
2023-03-08T14:50:27.629Z,66.59
2023-03-08T14:54:02.018Z,66.49
2023-03-08T14:57:30.662Z,66.15
2023-03-08T15:01:01.118Z,66.69
2023-03-08T15:04:28.768Z,67.51
2023-03-08T15:07:58.291Z,68.40
2023-03-08T15:11:26.225Z,69.13
2023-03-08T15:14:54.642Z,70.06
2023-03-08T15:18:23.039Z,70.53
2023-03-08T15:21:51.435Z,71.18
2023-03-08T15:25:24.795Z,71.79
2023-03-08T15:28:52.502Z,72.28
2023-03-08T15:32:19.859Z,72.71
2023-03-08T15:35:47.468Z,73.11
2023-03-08T15:39:15.545Z,73.41
2023-03-08T15:42:43.492Z,73.82
2023-03-08T15:46:13.684Z,74.08
2023-03-08T15:49:40.892Z,74.26
2023-03-08T15:53:08.410Z,74.58
2023-03-08T15:56:35.464Z,74.74
2023-03-08T16:00:04.603Z,75.24
2023-03-08T16:03:38.339Z,75.72
2023-03-08T16:07:05.615Z,75.86
2023-03-08T16:10:40.763Z,76.02
2023-03-08T16:14:07.829Z,76.13
2023-03-08T16:17:35.662Z,76.57
2023-03-08T16:21:06.734Z,76.80
2023-03-08T16:24:33.927Z,76.91
2023-03-08T16:28:01.251Z,77.15
2023-03-08T16:31:28.267Z,77.19
2023-03-08T16:34:59.153Z,77.30
2023-03-08T16:38:26.513Z,77.47
2023-03-08T16:41:53.626Z,77.71
2023-03-08T16:45:20.935Z,77.97
2023-03-08T16:48:49.881Z,77.58
2023-03-08T16:52:18.115Z,77.75
2023-03-08T16:55:45.144Z,78.10
2023-03-08T16:59:17.486Z,78.28
2023-03-08T17:02:45.490Z,78.09
2023-03-08T17:06:14.368Z,78.30
2023-03-08T17:09:42.045Z,78.18
2023-03-08T17:13:10.153Z,78.20
2023-03-08T17:16:38.313Z,78.11
2023-03-08T17:20:08.028Z,78.53
2023-03-08T17:23:36.825Z,78.30
2023-03-08T17:27:04.489Z,78.49
2023-03-08T17:30:33.355Z,78.50
2023-03-08T17:34:00.705Z,78.66
2023-03-08T17:37:28.027Z,79.32
2023-03-08T17:40:55.828Z,79.59
2023-03-08T17:44:23.588Z,79.86
2023-03-08T17:47:51.701Z,80.33
2023-03-08T17:51:20.466Z,80.33
2023-03-08T17:54:49.314Z,80.88
2023-03-08T17:58:19.018Z,81.34
2023-03-08T18:01:47.565Z,81.28
2023-03-08T18:05:15.612Z,81.38
2023-03-08T18:08:42.911Z,81.94
2023-03-08T18:12:11.776Z,82.05
2023-03-08T18:15:38.852Z,82.38
2023-03-08T18:19:07.295Z,82.55
2023-03-08T18:22:35.184Z,82.64
2023-03-08T18:26:03.610Z,82.97
2023-03-08T18:29:32.858Z,83.14
2023-03-08T18:33:00.599Z,83.62
2023-03-08T18:36:29.371Z,83.67
2023-03-08T18:39:59.084Z,84.04
2023-03-08T18:43:27.315Z,84.17
2023-03-08T18:46:54.697Z,84.32
2023-03-08T18:50:25.451Z,84.35
2023-03-08T18:53:55.089Z,84.39
2023-03-08T18:57:21.260Z,85.02
2023-03-08T19:00:51.311Z,85.23
2023-03-08T19:04:19.474Z,84.95
2023-03-08T19:07:47.764Z,85.27
2023-03-08T19:11:17.904Z,85.14
2023-03-08T19:14:46.602Z,85.42
2023-03-08T19:18:14.471Z,85.18
2023-03-08T19:21:43.846Z,85.49
2023-03-08T19:25:12.164Z,85.83
2023-03-08T19:28:39.837Z,85.91
2023-03-08T19:32:09.309Z,86.24
2023-03-08T19:35:39.308Z,86.53
2023-03-08T19:39:08.852Z,86.61
2023-03-08T19:42:34.510Z,86.75
2023-03-08T19:46:02.626Z,86.80
2023-03-08T19:49:32.342Z,87.19
2023-03-08T19:52:59.554Z,87.07
2023-03-08T19:56:28.504Z,87.35
2023-03-08T19:59:57.726Z,87.73
2023-03-08T20:03:25.710Z,87.71
2023-03-08T20:06:54.278Z,88.16
2023-03-08T20:10:23.140Z,88.00
2023-03-08T20:13:50.719Z,87.72
2023-03-08T20:17:18.228Z,88.03
2023-03-08T20:20:46.073Z,87.93
2023-03-08T20:24:14.530Z,88.38
2023-03-08T20:27:41.912Z,88.44
2023-03-08T20:31:12.793Z,88.44
2023-03-08T20:34:40.183Z,88.42
2023-03-08T20:38:07.206Z,88.48
2023-03-08T20:41:34.279Z,88.49
2023-03-08T20:45:01.275Z,88.79
2023-03-08T20:48:29.361Z,88.90
2023-03-08T20:51:56.362Z,88.87
2023-03-08T20:55:23.467Z,88.79
2023-03-08T20:58:50.661Z,88.94
2023-03-08T21:02:17.970Z,89.10
2023-03-08T21:05:45.165Z,89.35
2023-03-08T21:09:12.566Z,89.24
2023-03-08T21:12:39.985Z,89.24
2023-03-08T21:16:09.936Z,89.22
2023-03-08T21:19:37.701Z,89.65
2023-03-08T21:23:04.750Z,89.82
2023-03-08T21:26:33.063Z,89.85
2023-03-08T21:30:00.521Z,90.62
2023-03-08T21:33:28.137Z,89.99
2023-03-08T21:36:55.135Z,89.83
2023-03-08T21:40:22.608Z,89.93
2023-03-08T21:43:50.204Z,89.93
2023-03-08T21:47:17.247Z,89.75
2023-03-08T21:50:44.262Z,90.51
2023-03-08T21:54:11.357Z,89.97
2023-03-08T21:57:38.481Z,90.06
2023-03-08T22:01:06.410Z,90.41
2023-03-08T22:04:33.555Z,90.66
2023-03-08T22:08:00.593Z,90.54
2023-03-08T22:11:28.639Z,90.50
2023-03-08T22:14:55.861Z,90.65
2023-03-08T22:18:22.837Z,90.61
2023-03-08T22:21:49.948Z,90.96
2023-03-08T22:25:16.989Z,91.16
2023-03-08T22:28:44.112Z,90.68
2023-03-08T22:32:11.653Z,91.38
2023-03-08T22:35:38.693Z,91.44
2023-03-08T22:39:05.947Z,91.15
2023-03-08T22:42:33.912Z,91.16
2023-03-08T22:46:11.076Z,91.23
2023-03-08T22:49:38.283Z,91.77
2023-03-08T22:53:05.248Z,91.38
2023-03-08T22:56:33.462Z,91.87
2023-03-08T23:00:00.779Z,91.54
2023-03-08T23:03:28.206Z,91.75
2023-03-08T23:06:55.329Z,91.79
2023-03-08T23:10:22.753Z,91.95
2023-03-08T23:13:49.878Z,91.81
2023-03-08T23:17:16.917Z,92.12
2023-03-08T23:20:44.014Z,92.26
2023-03-08T23:24:11.836Z,91.91
2023-03-08T23:27:39.005Z,91.88
2023-03-08T23:31:11.658Z,92.07
2023-03-08T23:34:38.665Z,92.04
2023-03-08T23:38:05.722Z,92.00
2023-03-08T23:41:33.604Z,91.96
2023-03-08T23:45:00.596Z,91.62
2023-03-08T23:48:27.755Z,91.95
2023-03-08T23:51:54.750Z,91.86
2023-03-08T23:55:21.792Z,91.59
2023-03-08T23:58:51.127Z,91.74
